createdAt,value
2019-02-14T00:00:47.268Z,16.30
2019-02-14T00:03:16.326Z,16.27
2019-02-14T00:05:45.431Z,16.43
2019-02-14T00:08:14.776Z,15.33
2019-02-14T00:10:43.886Z,15.60
2019-02-14T00:13:13.238Z,16.17
2019-02-14T00:15:42.329Z,16.20
2019-02-14T00:18:11.410Z,15.73
2019-02-14T00:20:40.961Z,15.40
2019-02-14T00:23:10.961Z,14.73
2019-02-14T00:25:40.295Z,14.57
2019-02-14T00:28:09.624Z,14.33
2019-02-14T00:30:38.663Z,15.60
2019-02-14T00:33:07.955Z,16.17
2019-02-14T00:35:37.222Z,16.70
2019-02-14T00:38:06.457Z,16.00
2019-02-14T00:40:35.555Z,16.10
2019-02-14T00:43:04.878Z,15.40
2019-02-14T00:45:34.769Z,14.87
2019-02-14T00:48:04.237Z,14.10
2019-02-14T00:50:33.460Z,15.43
2019-02-14T00:53:02.691Z,14.73
2019-02-14T00:55:32.103Z,14.90
2019-02-14T00:58:01.274Z,16.00
2019-02-14T01:00:30.371Z,16.30
2019-02-14T01:02:59.611Z,15.97
2019-02-14T01:05:33.558Z,17.20
2019-02-14T01:07:59.824Z,15.87
2019-02-14T01:10:29.210Z,14.20
2019-02-14T01:12:58.525Z,14.37
2019-02-14T01:15:28.445Z,16.97
2019-02-14T01:17:57.667Z,16.00
2019-02-14T01:20:26.941Z,14.33
2019-02-14T01:22:56.225Z,15.77
2019-02-14T01:25:25.486Z,15.20
2019-02-14T01:27:54.602Z,15.67
2019-02-14T01:30:23.820Z,15.80
2019-02-14T01:32:53.004Z,14.63
2019-02-14T01:35:22.554Z,15.70
2019-02-14T01:37:51.651Z,14.97
2019-02-14T01:40:21.002Z,14.20
2019-02-14T01:42:50.201Z,13.17
2019-02-14T01:45:19.521Z,15.03
2019-02-14T01:47:48.572Z,14.60
2019-02-14T01:50:17.708Z,16.20
2019-02-14T01:52:46.817Z,15.17
2019-02-14T01:55:16.015Z,14.87
2019-02-14T01:57:45.402Z,15.57
2019-02-14T02:00:16.827Z,16.43
2019-02-14T02:02:45.903Z,15.40
2019-02-14T02:05:14.985Z,15.53
2019-02-14T02:07:44.142Z,15.17
2019-02-14T02:10:14.155Z,14.80
2019-02-14T02:12:43.545Z,15.60
2019-02-14T02:15:14.744Z,14.87
2019-02-14T02:17:43.954Z,16.67
2019-02-14T02:20:13.165Z,16.20
2019-02-14T02:22:42.496Z,16.17
2019-02-14T02:25:12.437Z,14.30
2019-02-14T02:27:41.808Z,14.03
2019-02-14T02:30:13.476Z,13.27
2019-02-14T02:32:42.720Z,13.73
2019-02-14T02:35:11.768Z,12.27
2019-02-14T02:37:40.881Z,13.40
2019-02-14T02:40:10.266Z,12.50
2019-02-14T02:42:39.387Z,12.40
2019-02-14T02:45:11.015Z,12.43
2019-02-14T02:47:40.773Z,13.97
2019-02-14T02:50:11.862Z,14.07
2019-02-14T02:52:41.048Z,13.10
2019-02-14T02:55:10.910Z,13.90
2019-02-14T02:57:40.251Z,12.67
2019-02-14T03:00:12.985Z,12.73
2019-02-14T03:02:42.041Z,13.23
2019-02-14T03:05:13.026Z,14.23
2019-02-14T03:07:42.156Z,15.40
2019-02-14T03:10:12.134Z,13.77
2019-02-14T03:12:41.559Z,11.70
2019-02-14T03:15:13.205Z,13.00
2019-02-14T03:17:42.270Z,12.53
2019-02-14T03:20:13.318Z,13.33
2019-02-14T03:22:42.404Z,13.40
2019-02-14T03:25:14.615Z,13.23
2019-02-14T03:27:43.705Z,12.67
2019-02-14T03:30:13.857Z,13.33
2019-02-14T03:32:42.948Z,12.30
2019-02-14T03:35:12.236Z,11.60
2019-02-14T03:37:41.459Z,12.97
2019-02-14T03:40:11.749Z,13.00
2019-02-14T03:42:40.845Z,13.00
2019-02-14T03:45:13.923Z,13.30
2019-02-14T03:47:43.180Z,12.97
2019-02-14T03:50:12.515Z,13.57
2019-02-14T03:52:41.628Z,11.90
2019-02-14T03:55:11.254Z,12.33
2019-02-14T03:57:40.353Z,12.67
2019-02-14T04:00:12.274Z,11.70
2019-02-14T04:02:41.514Z,11.77
2019-02-14T04:05:10.783Z,12.53
2019-02-14T04:07:40.099Z,12.90
2019-02-14T04:10:11.607Z,11.73
2019-02-14T04:12:44.318Z,11.70
2019-02-14T04:15:14.880Z,11.50
2019-02-14T04:17:43.952Z,13.20
2019-02-14T04:20:13.352Z,13.10
2019-02-14T04:22:42.455Z,11.63
2019-02-14T04:25:11.666Z,11.23
2019-02-14T04:27:40.809Z,12.77
2019-02-14T04:30:11.181Z,12.97
2019-02-14T04:32:40.275Z,12.03
2019-02-14T04:35:09.516Z,12.33
2019-02-14T04:37:38.624Z,12.10
2019-02-14T04:40:09.584Z,11.43
2019-02-14T04:42:38.844Z,12.83
2019-02-14T04:45:08.156Z,11.63
2019-02-14T04:47:37.356Z,11.00
2019-02-14T04:50:07.384Z,12.30
2019-02-14T04:52:36.568Z,11.37
2019-02-14T04:55:06.685Z,11.67
2019-02-14T04:57:36.103Z,11.10
2019-02-14T05:00:06.353Z,11.40
2019-02-14T05:02:35.459Z,12.93
2019-02-14T05:05:05.057Z,12.77
2019-02-14T05:07:34.185Z,11.73
2019-02-14T05:10:03.472Z,11.83
2019-02-14T05:12:32.754Z,10.97
2019-02-14T05:15:01.923Z,12.93
2019-02-14T05:17:31.004Z,12.90
2019-02-14T05:20:00.321Z,12.03
2019-02-14T05:22:29.537Z,10.90
2019-02-14T05:24:58.623Z,10.70
2019-02-14T05:27:27.853Z,11.90
2019-02-14T05:29:57.053Z,11.07
2019-02-14T05:32:26.244Z,11.60
2019-02-14T05:34:55.414Z,10.60
2019-02-14T05:37:24.798Z,11.97
2019-02-14T05:39:53.894Z,10.50
2019-02-14T05:42:22.947Z,10.67
2019-02-14T05:44:53.862Z,11.70
2019-02-14T05:47:22.942Z,11.40
2019-02-14T05:49:52.212Z,10.30
2019-02-14T05:52:21.275Z,11.03
2019-02-14T05:54:50.391Z,12.00
2019-02-14T05:57:19.469Z,9.63
2019-02-14T05:59:48.590Z,11.33
2019-02-14T06:02:18.992Z,11.50
2019-02-14T06:04:48.105Z,10.97
2019-02-14T06:07:17.212Z,11.47
2019-02-14T06:09:46.520Z,10.80
2019-02-14T06:12:15.660Z,10.33
2019-02-14T06:14:44.973Z,10.80
2019-02-14T06:17:14.190Z,10.50
2019-02-14T06:19:43.312Z,10.03
2019-02-14T06:22:12.636Z,11.07
2019-02-14T06:24:41.771Z,10.47
2019-02-14T06:27:13.060Z,9.13
2019-02-14T06:29:42.248Z,8.77
2019-02-14T06:32:11.345Z,9.90
2019-02-14T06:34:40.776Z,8.03
2019-02-14T06:37:10.126Z,9.30
2019-02-14T06:39:39.289Z,8.70
2019-02-14T06:42:08.399Z,8.43
2019-02-14T06:44:38.213Z,10.03
2019-02-14T06:47:07.593Z,8.97
2019-02-14T06:49:36.935Z,9.40
2019-02-14T06:52:06.264Z,9.20
2019-02-14T06:54:35.387Z,9.30
2019-02-14T06:57:04.667Z,8.43
2019-02-14T06:59:33.880Z,8.63
2019-02-14T07:02:03.230Z,9.00
2019-02-14T07:04:32.325Z,9.10
2019-02-14T07:07:01.512Z,8.80
2019-02-14T07:09:30.691Z,8.73
2019-02-14T07:11:59.855Z,9.30
2019-02-14T07:14:29.336Z,9.37
2019-02-14T07:16:58.445Z,11.27
2019-02-14T07:19:27.560Z,11.73
2019-02-14T07:21:56.772Z,10.20
2019-02-14T07:24:26.112Z,10.30
2019-02-14T07:26:55.249Z,11.10
2019-02-14T07:29:24.352Z,11.13
2019-02-14T07:31:53.608Z,11.80
2019-02-14T07:34:22.920Z,11.20
2019-02-14T07:36:52.619Z,9.97
2019-02-14T07:39:21.722Z,11.20
2019-02-14T07:41:50.804Z,10.60
2019-02-14T07:44:19.899Z,10.67
2019-02-14T07:46:48.968Z,10.97
2019-02-14T07:49:18.194Z,10.83
2019-02-14T07:51:48.639Z,11.27
2019-02-14T07:54:18.031Z,11.70
2019-02-14T07:56:47.180Z,11.10
2019-02-14T07:59:16.340Z,12.67
2019-02-14T08:01:45.435Z,14.53
2019-02-14T08:04:14.540Z,12.60
2019-02-14T08:06:43.639Z,11.53
2019-02-14T08:09:13.011Z,11.23
2019-02-14T08:11:42.078Z,12.70
2019-02-14T08:14:11.565Z,13.07
2019-02-14T08:16:40.665Z,12.57
2019-02-14T08:19:10.159Z,12.50
2019-02-14T08:21:39.233Z,12.70
2019-02-14T08:24:08.664Z,11.70
2019-02-14T08:26:37.748Z,11.70
2019-02-14T08:29:06.907Z,11.23
2019-02-14T08:31:36.132Z,10.00
2019-02-14T08:34:05.307Z,11.93
2019-02-14T08:36:34.544Z,11.23
2019-02-14T08:39:05.390Z,11.47
2019-02-14T08:41:34.715Z,10.50
2019-02-14T08:44:04.954Z,12.17
2019-02-14T08:46:34.290Z,10.90
2019-02-14T08:49:03.408Z,11.90
2019-02-14T08:51:32.730Z,12.13
2019-02-14T08:54:01.906Z,12.13
2019-02-14T08:56:31.184Z,12.30
2019-02-14T08:59:00.298Z,12.07
2019-02-14T09:01:29.533Z,11.83
2019-02-14T09:03:58.720Z,12.10
2019-02-14T09:06:28.003Z,12.73
2019-02-14T09:08:57.357Z,14.67
2019-02-14T09:11:26.657Z,12.63
2019-02-14T09:13:55.785Z,12.40
2019-02-14T09:16:25.020Z,14.63
2019-02-14T09:18:54.408Z,12.90
2019-02-14T09:21:23.546Z,12.47
2019-02-14T09:23:52.644Z,12.87
2019-02-14T09:26:21.888Z,12.43
2019-02-14T09:28:50.982Z,12.00
2019-02-14T09:31:20.148Z,12.13
2019-02-14T09:33:50.616Z,12.63
2019-02-14T09:36:19.948Z,11.87
2019-02-14T09:38:49.047Z,11.60
2019-02-14T09:41:18.152Z,12.63
2019-02-14T09:43:47.333Z,12.60
2019-02-14T09:46:16.525Z,12.43
2019-02-14T09:48:45.779Z,13.27
2019-02-14T09:51:15.531Z,12.60
2019-02-14T09:53:44.640Z,14.17
2019-02-14T09:56:13.868Z,13.27
2019-02-14T09:58:42.983Z,13.37
2019-02-14T10:01:12.087Z,12.70
2019-02-14T10:03:41.227Z,13.47
2019-02-14T10:06:10.540Z,13.27
2019-02-14T10:08:39.857Z,13.60
2019-02-14T10:11:09.046Z,11.90
2019-02-14T10:13:38.222Z,11.70
2019-02-14T10:16:07.442Z,12.97
2019-02-14T10:18:36.659Z,12.33
2019-02-14T10:21:05.790Z,11.73
2019-02-14T10:23:34.909Z,12.10
2019-02-14T10:26:04.088Z,10.83
2019-02-14T10:28:33.446Z,11.77
2019-02-14T10:31:02.538Z,10.87
2019-02-14T10:33:31.907Z,11.53
2019-02-14T10:36:00.984Z,10.30
2019-02-14T10:38:30.286Z,10.20
2019-02-14T10:40:59.361Z,10.73
2019-02-14T10:43:28.523Z,10.93
2019-02-14T10:45:57.877Z,10.33
2019-02-14T10:48:27.104Z,11.50
2019-02-14T10:50:56.270Z,10.50
2019-02-14T10:53:25.609Z,11.33
2019-02-14T10:55:54.889Z,10.33
2019-02-14T10:58:24.024Z,11.73
2019-02-14T11:00:53.189Z,11.50
2019-02-14T11:03:22.430Z,11.63
2019-02-14T11:05:51.512Z,11.70
2019-02-14T11:08:20.797Z,11.80
2019-02-14T11:10:50.167Z,10.97
2019-02-14T11:13:19.298Z,10.87
2019-02-14T11:15:48.532Z,9.90
2019-02-14T11:18:17.666Z,11.53
2019-02-14T11:20:46.929Z,10.13
2019-02-14T11:23:16.166Z,10.87
2019-02-14T11:25:45.627Z,12.47
2019-02-14T11:28:14.997Z,13.00
2019-02-14T11:30:44.097Z,12.37
2019-02-14T11:33:13.211Z,11.43
2019-02-14T11:35:42.324Z,11.97
2019-02-14T11:38:11.395Z,11.20
2019-02-14T11:40:40.758Z,13.17
2019-02-14T11:43:09.895Z,13.80
2019-02-14T11:45:39.119Z,14.10
2019-02-14T11:48:08.431Z,14.00
2019-02-14T11:50:37.574Z,14.60
2019-02-14T11:53:14.019Z,14.67
2019-02-14T11:55:38.215Z,14.73
2019-02-14T11:58:07.333Z,14.40
2019-02-14T12:00:36.470Z,14.33
2019-02-14T12:03:05.836Z,14.93
2019-02-14T12:05:35.095Z,14.67
2019-02-14T12:08:04.235Z,14.80
2019-02-14T12:10:33.572Z,14.80
2019-02-14T12:13:02.890Z,14.97
2019-02-14T12:15:32.180Z,15.47
2019-02-14T12:18:01.342Z,14.60
2019-02-14T12:20:30.456Z,13.27
2019-02-14T12:22:59.602Z,14.23
2019-02-14T12:25:29.055Z,14.47
2019-02-14T12:27:58.133Z,16.30
2019-02-14T12:30:27.537Z,15.40
2019-02-14T12:32:56.733Z,15.23
2019-02-14T12:35:26.121Z,15.97
2019-02-14T12:37:55.291Z,15.50
2019-02-14T12:40:24.464Z,15.93
2019-02-14T12:42:54.467Z,16.00
2019-02-14T12:45:26.069Z,15.60
2019-02-14T12:47:54.650Z,15.90
2019-02-14T12:50:23.961Z,15.30
2019-02-14T12:52:53.119Z,15.00
2019-02-14T12:55:22.255Z,15.50
2019-02-14T12:57:51.536Z,15.47
2019-02-14T13:00:21.646Z,16.57
2019-02-14T13:02:50.958Z,15.93
2019-02-14T13:05:21.020Z,17.07
2019-02-14T13:07:50.275Z,15.40
2019-02-14T13:10:19.604Z,15.47
2019-02-14T13:12:48.738Z,16.00
2019-02-14T13:15:19.854Z,16.40
2019-02-14T13:17:49.655Z,15.40
2019-02-14T13:20:18.788Z,15.30
2019-02-14T13:22:48.049Z,16.00
2019-02-14T13:25:17.665Z,16.83
2019-02-14T13:27:47.065Z,14.90
2019-02-14T13:30:18.680Z,16.20
2019-02-14T13:32:48.182Z,16.00
2019-02-14T13:35:19.398Z,16.40
2019-02-14T13:37:48.902Z,16.80
2019-02-14T13:40:18.117Z,15.30
2019-02-14T13:42:47.306Z,16.70
2019-02-14T13:45:19.360Z,15.90
2019-02-14T13:47:48.629Z,15.97
2019-02-14T13:50:17.912Z,15.70
2019-02-14T13:52:47.159Z,15.87
2019-02-14T13:55:16.430Z,16.53
2019-02-14T13:57:45.755Z,14.90
2019-02-14T14:00:24.361Z,16.53
2019-02-14T14:02:53.573Z,16.30
2019-02-14T14:05:23.001Z,18.70
2019-02-14T14:07:52.156Z,17.83
2019-02-14T14:10:21.473Z,17.40
2019-02-14T14:12:50.551Z,17.27
2019-02-14T14:15:19.650Z,17.20
2019-02-14T14:17:49.031Z,16.80
2019-02-14T14:20:18.295Z,16.90
2019-02-14T14:22:47.546Z,17.77
2019-02-14T14:25:16.922Z,14.47
2019-02-14T14:27:46.085Z,15.97
2019-02-14T14:30:15.478Z,17.87
2019-02-14T14:32:44.558Z,15.57
2019-02-14T14:35:13.704Z,14.97
2019-02-14T14:37:43.195Z,15.73
2019-02-14T14:40:12.618Z,17.13
2019-02-14T14:43:04.122Z,15.77
2019-02-14T14:45:58.561Z,16.83
2019-02-14T14:48:32.120Z,16.87
2019-02-14T14:51:01.557Z,15.93
2019-02-14T14:53:30.952Z,17.20
2019-02-14T14:56:00.247Z,16.67
2019-02-14T14:58:29.349Z,15.50
2019-02-14T15:00:58.552Z,15.53
2019-02-14T15:03:27.698Z,15.60
2019-02-14T15:05:56.838Z,15.90
2019-02-14T15:08:26.289Z,16.00
2019-02-14T15:10:55.432Z,16.03
2019-02-14T15:13:24.545Z,16.73
2019-02-14T15:15:53.907Z,16.70
2019-02-14T15:18:23.031Z,17.23
2019-02-14T15:20:52.288Z,15.20
2019-02-14T15:23:21.686Z,16.70
2019-02-14T15:25:50.807Z,14.20
2019-02-14T15:28:19.943Z,15.03
2019-02-14T15:30:49.067Z,16.90
2019-02-14T15:33:18.354Z,15.90
2019-02-14T15:35:47.536Z,15.40
2019-02-14T15:38:16.788Z,15.80
2019-02-14T15:40:45.914Z,15.63
2019-02-14T15:43:15.202Z,16.07
2019-02-14T15:45:44.553Z,16.70
2019-02-14T15:48:13.722Z,16.30
2019-02-14T15:50:43.087Z,14.83
2019-02-14T15:53:12.426Z,15.33
2019-02-14T15:55:44.033Z,16.30
2019-02-14T15:58:13.413Z,15.60
2019-02-14T16:00:42.682Z,17.10
2019-02-14T16:03:12.117Z,14.57
2019-02-14T16:05:42.666Z,15.53
2019-02-14T16:08:12.227Z,15.70
2019-02-14T16:10:41.872Z,15.40
2019-02-14T16:13:11.121Z,17.27
2019-02-14T16:15:40.346Z,15.60
2019-02-14T16:18:09.634Z,16.50
2019-02-14T16:20:40.379Z,17.40
2019-02-14T16:23:10.935Z,17.73
2019-02-14T16:25:40.256Z,16.97
2019-02-14T16:28:11.502Z,16.03
2019-02-14T16:30:40.346Z,15.47
2019-02-14T16:33:09.451Z,15.87
2019-02-14T16:35:38.837Z,14.87
2019-02-14T16:38:10.154Z,15.57
2019-02-14T16:40:39.172Z,17.20
2019-02-14T16:43:08.391Z,18.87
2019-02-14T16:45:37.522Z,17.57
2019-02-14T16:48:06.648Z,16.60
2019-02-14T16:50:35.924Z,15.23
2019-02-14T16:53:05.271Z,18.03
2019-02-14T16:55:34.411Z,20.77
2019-02-14T16:58:03.653Z,19.77
2019-02-14T17:00:32.905Z,18.97
2019-02-14T17:03:02.027Z,18.57
2019-02-14T17:05:31.666Z,23.27
2019-02-14T17:08:00.898Z,18.60
2019-02-14T17:10:36.793Z,19.57
2019-02-14T17:13:01.441Z,20.07
2019-02-14T17:15:30.891Z,19.00
2019-02-14T17:18:01.064Z,16.97
2019-02-14T17:20:30.725Z,22.70
2019-02-14T17:22:59.925Z,24.80
2019-02-14T17:25:29.109Z,24.43
2019-02-14T17:27:59.230Z,25.57
2019-02-14T17:30:28.490Z,22.30
2019-02-14T17:32:57.770Z,23.00
2019-02-14T17:35:26.873Z,23.90
2019-02-14T17:37:56.117Z,23.37
2019-02-14T17:40:25.344Z,23.57
2019-02-14T17:42:54.617Z,22.43
2019-02-14T17:45:25.561Z,21.80
2019-02-14T17:47:54.991Z,30.90
2019-02-14T17:50:24.304Z,25.00
2019-02-14T17:52:53.903Z,21.10
2019-02-14T17:55:23.509Z,23.60
2019-02-14T17:57:52.751Z,24.37
2019-02-14T18:00:21.987Z,33.50
2019-02-14T18:02:51.429Z,27.27
2019-02-14T18:05:20.491Z,24.70
2019-02-14T18:07:50.297Z,32.57
2019-02-14T18:10:19.788Z,29.50
2019-02-14T18:12:49.021Z,24.07
2019-02-14T18:15:20.133Z,37.20
2019-02-14T18:17:49.330Z,22.23
2019-02-14T18:20:19.896Z,24.10
2019-02-14T18:22:49.228Z,24.13
2019-02-14T18:25:18.947Z,23.73
2019-02-14T18:27:49.262Z,25.67
2019-02-14T18:30:19.242Z,24.87
2019-02-14T18:32:50.567Z,26.93
2019-02-14T18:35:19.784Z,25.80
2019-02-14T18:37:49.797Z,27.60
2019-02-14T18:40:19.327Z,25.70
2019-02-14T18:42:49.320Z,24.50
2019-02-14T18:45:18.754Z,20.20
2019-02-14T18:47:48.150Z,21.10
2019-02-14T18:50:17.666Z,23.10
2019-02-14T18:52:46.776Z,22.97
2019-02-14T18:55:18.216Z,20.90
2019-02-14T18:57:47.019Z,23.27
2019-02-14T19:00:16.425Z,22.83
2019-02-14T19:02:45.887Z,24.03
2019-02-14T19:05:15.385Z,25.40
2019-02-14T19:07:44.585Z,26.20
2019-02-14T19:10:14.033Z,27.93
2019-02-14T19:12:43.363Z,26.07
2019-02-14T19:15:13.274Z,27.50
2019-02-14T19:17:42.653Z,24.73
2019-02-14T19:20:12.749Z,24.53
2019-02-14T19:22:42.051Z,25.50
2019-02-14T19:25:11.757Z,26.00
2019-02-14T19:27:42.711Z,25.67
2019-02-14T19:30:12.649Z,23.73
2019-02-14T19:32:41.833Z,23.47
2019-02-14T19:35:11.374Z,26.13
2019-02-14T19:37:40.753Z,26.60
2019-02-14T19:40:11.511Z,33.63
2019-02-14T19:42:40.840Z,28.60
2019-02-14T19:45:10.883Z,27.07
2019-02-14T19:47:40.044Z,27.23
2019-02-14T19:50:09.613Z,30.77
2019-02-14T19:52:38.762Z,29.93
2019-02-14T19:55:08.531Z,24.70
2019-02-14T19:57:37.818Z,22.90
2019-02-14T20:00:08.971Z,22.90
2019-02-14T20:02:39.165Z,22.33
2019-02-14T20:05:09.593Z,21.13
2019-02-14T20:07:38.781Z,22.10
2019-02-14T20:10:11.716Z,23.43
2019-02-14T20:12:41.236Z,31.63
2019-02-14T20:15:13.028Z,31.03
2019-02-14T20:17:42.383Z,26.67
2019-02-14T20:20:11.791Z,29.37
2019-02-14T20:22:40.981Z,27.43
2019-02-14T20:25:13.786Z,34.10
2019-02-14T20:27:43.127Z,31.97
2019-02-14T20:30:12.387Z,26.30
2019-02-14T20:32:41.518Z,28.30
2019-02-14T20:35:11.098Z,25.27
2019-02-14T20:37:40.207Z,31.43
2019-02-14T20:40:09.747Z,28.40
2019-02-14T20:42:39.522Z,28.97
2019-02-14T20:45:09.771Z,29.50
2019-02-14T20:47:38.924Z,31.60
2019-02-14T20:50:11.705Z,27.70
2019-02-14T20:52:41.129Z,25.57
2019-02-14T20:55:12.450Z,22.83
2019-02-14T20:57:41.535Z,23.60
2019-02-14T21:00:21.990Z,26.27
2019-02-14T21:02:51.113Z,26.90
2019-02-14T21:05:20.315Z,26.77
2019-02-14T21:07:49.461Z,25.83
2019-02-14T21:10:18.636Z,28.67
2019-02-14T21:12:47.844Z,31.50
2019-02-14T21:15:17.026Z,28.50
2019-02-14T21:17:46.119Z,34.67
2019-02-14T21:20:15.700Z,31.43
2019-02-14T21:22:44.830Z,30.40
2019-02-14T21:25:14.530Z,30.07
2019-02-14T21:27:43.846Z,30.50
2019-02-14T21:30:13.987Z,34.03
2019-02-14T21:32:43.295Z,34.30
2019-02-14T21:35:12.538Z,30.70
2019-02-14T21:37:41.812Z,32.73
2019-02-14T21:40:12.613Z,33.00
2019-02-14T21:42:42.009Z,31.43
2019-02-14T21:45:13.377Z,31.53
2019-02-14T21:47:42.490Z,29.20
2019-02-14T21:50:12.158Z,28.50
2019-02-14T21:52:41.238Z,29.50
2019-02-14T21:55:10.659Z,32.70
2019-02-14T21:57:39.823Z,31.30
2019-02-14T22:00:12.332Z,31.77
2019-02-14T22:02:41.863Z,31.77
2019-02-14T22:05:11.350Z,32.40
2019-02-14T22:07:40.693Z,31.20
2019-02-14T22:10:10.657Z,30.13
2019-02-14T22:12:42.309Z,27.97
2019-02-14T22:15:12.874Z,28.10
2019-02-14T22:17:42.119Z,26.40
2019-02-14T22:20:11.382Z,27.37
2019-02-14T22:22:40.501Z,27.30
2019-02-14T22:25:11.494Z,27.50
2019-02-14T22:27:41.164Z,24.97
2019-02-14T22:30:15.881Z,26.87
2019-02-14T22:32:45.459Z,23.27
2019-02-14T22:35:14.594Z,24.10
2019-02-14T22:37:43.814Z,23.40
2019-02-14T22:40:13.176Z,23.80
2019-02-14T22:42:47.351Z,24.57
2019-02-14T22:45:13.983Z,23.93
2019-02-14T22:47:44.328Z,22.60
2019-02-14T22:50:13.476Z,25.87
2019-02-14T22:52:42.622Z,24.00
2019-02-14T22:55:11.956Z,23.67
2019-02-14T22:57:41.059Z,23.70
2019-02-14T23:00:29.976Z,23.67
2019-02-14T23:02:59.065Z,23.37
2019-02-14T23:05:28.323Z,22.80
2019-02-14T23:07:57.632Z,24.40
2019-02-14T23:10:27.001Z,28.53
2019-02-14T23:12:56.357Z,29.43
2019-02-14T23:15:25.687Z,27.50
2019-02-14T23:17:54.992Z,30.33
2019-02-14T23:20:24.159Z,27.47
2019-02-14T23:22:53.289Z,29.90
2019-02-14T23:25:22.453Z,31.50
2019-02-14T23:27:51.552Z,26.50
2019-02-14T23:30:20.717Z,23.97
2019-02-14T23:32:49.798Z,24.33
2019-02-14T23:35:19.345Z,25.10
2019-02-14T23:37:48.407Z,26.43
2019-02-14T23:40:17.759Z,26.57
2019-02-14T23:42:46.856Z,23.73
2019-02-14T23:45:16.121Z,27.90
2019-02-14T23:47:45.220Z,22.53
2019-02-14T23:50:14.374Z,22.83
2019-02-14T23:52:43.534Z,22.33
2019-02-14T23:55:13.332Z,23.73
2019-02-14T23:57:42.458Z,23.63
